Hlavní strana
METAR-TAF:

METAR-TAF

Letiště :

Bagdád, Irák

zeměpisná šířka: 33-15-45N, zeměpisná délka: 44-14-04E, výška: 35 m

Aktuální stav počasí

Zpráva byla vytvořena před 29 minutami, v 09:00 UTC
Západní vítr 9 kt
Teplota 18°C
Vlhkost vzduchu 42%
Tlak 1020 hPa
Viditelnost 10 km a více
Žádná oblačnost pod 1500 m, nevyskytují se cumulonimby.

METAR: ORBI 180900Z 28009KT CAVOK 18/05 Q1020 NOSIG

Čas: 12:29 (09:29 UTC)

Předpověď počasí

Zpráva byla vytvořena před 6 hodinami a 29 minutami, v 03:00 UTC
Předpověď platná od 18 v 06 UTC do 19 v 06 UTC
Severozápadní vítr 6 kt
Viditelnost: 5000 m
Skoro jasno ve výšce 3000 ft

TAF: ORBI 180300Z 1806/1906 32006KT 5000 FEW030

Stav a předpovědi počasí z více než 4 000 letišť (zprávy METAR a TAF).

Červené a žluté tečky na mapě představují dostupné meteorologické stanice.

Když kurzor umístíte na tečku, zobrazí se název stanice.

Pak kliknutím zobrazíte stav a předpověď počasí.

Chcete-li změnit mapu, kliknutím na zelené tlačítko se znaménkem +mapu přiblížíte, kliknutím na zelené tlačítko se znaménkem – mapu oddálíte a kliknutím na zelené šipky přejdete na sousední mapy.


METAR-TAF: